createdAt,value
2019-01-19T00:02:41.011Z,99.90
2019-01-19T00:05:26.004Z,99.90
2019-01-19T00:08:13.911Z,99.90
2019-01-19T00:10:52.835Z,99.90
2019-01-19T00:13:37.847Z,99.90
2019-01-19T00:16:10.891Z,99.90
2019-01-19T00:19:15.674Z,99.90
2019-01-19T00:21:48.636Z,99.90
2019-01-19T00:24:21.067Z,99.90
2019-01-19T00:27:09.103Z,99.90
2019-01-19T00:29:50.907Z,99.90
2019-01-19T00:32:33.031Z,99.90
2019-01-19T00:35:18.037Z,99.90
2019-01-19T00:37:47.068Z,99.90
2019-01-19T00:40:35.188Z,99.90
2019-01-19T00:43:02.656Z,99.90
2019-01-19T00:45:41.523Z,99.90
2019-01-19T00:48:23.064Z,99.90
2019-01-19T00:50:55.716Z,99.90
2019-01-19T00:53:34.591Z,99.90
2019-01-19T00:56:13.639Z,99.90
2019-01-19T00:58:43.532Z,99.90
2019-01-19T01:01:42.511Z,99.90
2019-01-19T01:04:42.655Z,99.90
2019-01-19T01:07:29.363Z,99.90
2019-01-19T01:10:01.760Z,99.90
2019-01-19T01:13:03.892Z,99.90
2019-01-19T01:15:53.923Z,99.90
2019-01-19T01:18:45.239Z,99.90
2019-01-19T01:21:18.333Z,99.90
2019-01-19T01:23:57.611Z,99.90
2019-01-19T01:26:39.688Z,99.90
2019-01-19T01:29:12.600Z,99.90
2019-01-19T01:31:45.444Z,99.90
2019-01-19T01:34:24.467Z,99.90
2019-01-19T01:37:00.281Z,99.90
2019-01-19T01:39:36.044Z,99.90
2019-01-19T01:42:14.510Z,99.90
2019-01-19T01:44:47.368Z,99.90
2019-01-19T01:47:37.386Z,99.90
2019-01-19T01:50:07.260Z,99.90
2019-01-19T01:52:42.491Z,99.90
2019-01-19T01:55:15.366Z,99.90
2019-01-19T01:57:44.559Z,99.90
2019-01-19T02:00:38.423Z,99.90
2019-01-19T02:03:29.987Z,99.90
2019-01-19T02:06:00.022Z,99.90
2019-01-19T02:08:38.323Z,99.90
2019-01-19T02:11:08.253Z,99.90
2019-01-19T02:13:44.096Z,99.90
2019-01-19T02:16:40.188Z,99.90
2019-01-19T02:19:28.072Z,99.90
2019-01-19T02:22:07.754Z,99.90
2019-01-19T02:24:40.209Z,99.90
2019-01-19T02:27:10.107Z,99.90
2019-01-19T02:29:39.983Z,99.90
2019-01-19T02:32:15.437Z,99.90
2019-01-19T02:34:48.141Z,99.90
2019-01-19T02:37:21.263Z,99.90
2019-01-19T02:39:57.085Z,99.90
2019-01-19T02:42:38.988Z,99.90
2019-01-19T02:45:27.149Z,99.90
2019-01-19T02:48:00.121Z,99.90
2019-01-19T02:50:39.251Z,99.90
2019-01-19T02:53:25.972Z,99.90
2019-01-19T02:56:01.508Z,99.90
2019-01-19T02:58:31.444Z,99.90
2019-01-19T03:01:21.192Z,99.90
2019-01-19T03:03:56.837Z,99.90
2019-01-19T03:06:29.538Z,99.90
2019-01-19T03:09:11.500Z,99.90
2019-01-19T03:11:41.401Z,99.90
2019-01-19T03:14:41.642Z,99.90
2019-01-19T03:17:26.822Z,99.90
2019-01-19T03:19:59.471Z,99.90
2019-01-19T03:22:35.347Z,99.90
2019-01-19T03:25:29.519Z,99.90
2019-01-19T03:28:16.423Z,99.90
2019-01-19T03:31:12.578Z,99.90
2019-01-19T03:33:51.224Z,99.90
2019-01-19T03:36:44.130Z,99.90
2019-01-19T03:39:30.791Z,99.90
2019-01-19T03:42:01.268Z,99.90
2019-01-19T03:44:33.784Z,99.90
2019-01-19T03:47:29.976Z,99.90
2019-01-19T03:50:08.976Z,99.90
2019-01-19T03:53:00.070Z,99.90
2019-01-19T03:55:45.475Z,99.90
2019-01-19T03:58:18.246Z,99.90
2019-01-19T04:01:06.209Z,99.90
2019-01-19T04:03:47.675Z,99.90
2019-01-19T04:06:23.427Z,99.90
2019-01-19T04:09:20.196Z,99.90
2019-01-19T04:12:10.011Z,99.90
2019-01-19T04:14:54.862Z,99.90
2019-01-19T04:17:24.742Z,99.90
2019-01-19T04:19:57.397Z,99.90
2019-01-19T04:22:27.256Z,99.90
2019-01-19T04:24:57.128Z,99.90
2019-01-19T04:27:23.220Z,99.90
2019-01-19T04:29:49.303Z,99.90
2019-01-19T04:32:15.385Z,99.90
2019-01-19T04:34:41.494Z,99.90
2019-01-19T04:37:07.769Z,99.90
2019-01-19T04:39:33.831Z,99.90
2019-01-19T04:42:00.117Z,99.90
2019-01-19T04:44:26.292Z,99.90
2019-01-19T04:46:52.376Z,99.90
2019-01-19T04:49:18.484Z,99.90
2019-01-19T04:51:44.656Z,99.90
2019-01-19T04:54:10.723Z,99.90
2019-01-19T04:56:36.802Z,99.90
2019-01-19T04:59:02.878Z,99.90
2019-01-19T05:01:28.961Z,99.90
2019-01-19T05:03:55.243Z,99.90
2019-01-19T05:06:29.782Z,99.90
2019-01-19T05:08:49.324Z,99.90
2019-01-19T05:11:15.412Z,99.90
2019-01-19T05:13:41.486Z,99.90
2019-01-19T05:16:07.572Z,99.90
2019-01-19T05:18:33.839Z,99.90
2019-01-19T05:21:00.139Z,99.90
2019-01-19T05:23:26.412Z,99.90
2019-01-19T05:25:52.494Z,99.90
2019-01-19T05:28:18.563Z,99.90
2019-01-19T05:30:44.669Z,99.90
2019-01-19T05:33:10.735Z,99.90
2019-01-19T05:35:36.823Z,99.90
2019-01-19T05:38:02.896Z,99.90
2019-01-19T05:40:28.973Z,99.90
2019-01-19T05:42:55.052Z,99.90
2019-01-19T05:45:21.180Z,99.90
2019-01-19T05:47:47.308Z,99.90
2019-01-19T05:50:16.579Z,99.90
2019-01-19T05:52:42.663Z,99.90
2019-01-19T05:55:08.838Z,99.90
2019-01-19T05:57:34.926Z,99.90
2019-01-19T06:00:23.796Z,99.90
2019-01-19T06:02:49.916Z,99.90
2019-01-19T06:05:17.175Z,99.90
2019-01-19T06:07:43.282Z,99.90
2019-01-19T06:10:12.057Z,99.90
2019-01-19T06:12:38.146Z,99.90
2019-01-19T06:15:08.036Z,99.90
2019-01-19T06:17:34.148Z,99.90
2019-01-19T06:20:00.299Z,99.90
2019-01-19T06:22:26.563Z,99.90
2019-01-19T06:24:52.649Z,99.90
2019-01-19T06:27:18.741Z,99.90
2019-01-19T06:29:44.878Z,99.90
2019-01-19T06:32:11.035Z,99.90
2019-01-19T06:34:37.103Z,99.90
2019-01-19T06:37:04.352Z,99.90
2019-01-19T06:39:30.675Z,99.90
2019-01-19T06:41:56.857Z,99.90
2019-01-19T06:44:22.932Z,99.90
2019-01-19T06:46:49.021Z,99.90
2019-01-19T06:49:15.107Z,99.90
2019-01-19T06:51:41.275Z,99.90
2019-01-19T06:54:07.863Z,99.90
2019-01-19T06:56:34.163Z,99.90
2019-01-19T06:59:00.336Z,99.90
2019-01-19T07:01:26.447Z,99.90
2019-01-19T07:03:52.539Z,99.90
2019-01-19T07:06:18.718Z,99.90
2019-01-19T07:08:44.891Z,99.90
2019-01-19T07:11:10.968Z,99.90
2019-01-19T07:13:37.059Z,99.90
2019-01-19T07:16:03.227Z,99.90
2019-01-19T07:18:29.307Z,99.90
2019-01-19T07:20:55.395Z,99.90
2019-01-19T07:23:21.465Z,99.90
2019-01-19T07:25:47.552Z,99.90
2019-01-19T07:28:13.644Z,99.90
2019-01-19T07:30:39.737Z,99.90
2019-01-19T07:33:05.820Z,99.90
2019-01-19T07:35:31.887Z,99.90
2019-01-19T07:37:58.012Z,99.90
2019-01-19T07:40:24.079Z,99.90
2019-01-19T07:42:52.189Z,99.90
2019-01-19T07:45:18.252Z,99.90
2019-01-19T07:47:44.959Z,99.90
2019-01-19T07:50:32.815Z,99.90
2019-01-19T07:52:58.899Z,99.90
2019-01-19T07:55:24.984Z,99.90
2019-01-19T07:57:51.068Z,99.90
2019-01-19T08:00:23.453Z,99.90
2019-01-19T08:02:49.530Z,99.90
2019-01-19T08:05:15.594Z,99.90
2019-01-19T08:07:41.671Z,99.90
2019-01-19T08:10:13.483Z,99.90
2019-01-19T08:12:39.568Z,99.90
2019-01-19T08:15:11.922Z,99.90
2019-01-19T08:17:38.008Z,99.90
2019-01-19T08:20:07.985Z,99.90
2019-01-19T08:22:34.171Z,99.90
2019-01-19T08:25:00.323Z,99.90
2019-01-19T08:27:26.849Z,99.90
2019-01-19T08:29:53.093Z,99.90
2019-01-19T08:32:19.259Z,99.90
2019-01-19T08:34:46.587Z,99.90
2019-01-19T08:37:12.779Z,99.90
2019-01-19T08:39:38.877Z,99.90
2019-01-19T08:42:04.948Z,99.90
2019-01-19T08:44:31.112Z,99.90
2019-01-19T08:46:57.183Z,99.90
2019-01-19T08:49:23.278Z,99.90
2019-01-19T08:51:49.464Z,99.90
2019-01-19T08:54:15.564Z,99.90
2019-01-19T08:56:41.632Z,99.90
2019-01-19T08:59:07.723Z,99.90
2019-01-19T09:01:33.787Z,99.90
2019-01-19T09:03:59.880Z,99.90
2019-01-19T09:06:25.955Z,99.90
2019-01-19T09:08:52.033Z,99.90
2019-01-19T09:11:37.987Z,99.90
2019-01-19T09:14:04.304Z,99.90
2019-01-19T09:16:30.366Z,99.90
2019-01-19T09:18:56.437Z,99.90
2019-01-19T09:21:22.583Z,99.90
2019-01-19T09:23:50.595Z,99.90
2019-01-19T09:26:16.664Z,99.90
2019-01-19T09:28:44.041Z,99.90
2019-01-19T09:31:10.229Z,99.90
2019-01-19T09:33:36.335Z,99.90
2019-01-19T09:36:02.812Z,99.90
2019-01-19T09:38:28.905Z,99.90
2019-01-19T09:40:54.978Z,99.90
2019-01-19T09:43:21.077Z,99.90
2019-01-19T09:45:47.259Z,99.90
2019-01-19T09:48:13.340Z,99.90
2019-01-19T09:50:39.428Z,99.90
2019-01-19T09:53:05.593Z,99.90
2019-01-19T09:55:31.869Z,99.90
2019-01-19T09:57:57.936Z,99.90
2019-01-19T10:00:26.140Z,99.90
2019-01-19T10:02:52.628Z,99.90
2019-01-19T10:05:25.745Z,99.90
2019-01-19T10:07:51.940Z,99.90
2019-01-19T10:10:18.108Z,99.90
2019-01-19T10:12:44.290Z,99.90
2019-01-19T10:15:15.811Z,99.90
2019-01-19T10:17:42.051Z,99.90
2019-01-19T10:20:11.424Z,99.90
2019-01-19T10:22:37.501Z,99.90
2019-01-19T10:25:07.500Z,99.90
2019-01-19T10:27:37.497Z,99.90
2019-01-19T10:30:02.912Z,99.90
2019-01-19T10:32:28.983Z,99.90
2019-01-19T10:34:55.071Z,99.90
2019-01-19T10:37:21.384Z,99.90
2019-01-19T10:39:47.635Z,99.90
2019-01-19T10:42:13.779Z,99.90
2019-01-19T10:44:39.971Z,99.90
2019-01-19T10:47:06.040Z,99.90
2019-01-19T10:49:32.131Z,99.90
2019-01-19T10:51:59.484Z,99.90
2019-01-19T10:54:25.944Z,99.90
2019-01-19T10:56:52.105Z,99.90
2019-01-19T10:59:18.247Z,99.90
2019-01-19T11:01:44.365Z,99.90
2019-01-19T11:04:10.475Z,99.90
2019-01-19T11:06:36.552Z,99.90
2019-01-19T11:09:04.359Z,99.90
2019-01-19T11:11:30.433Z,99.90
2019-01-19T11:13:56.535Z,99.90
2019-01-19T11:16:22.707Z,99.90
2019-01-19T11:18:48.795Z,99.90
2019-01-19T11:21:14.875Z,99.90
2019-01-19T11:23:40.942Z,99.90
2019-01-19T11:26:07.038Z,99.90
2019-01-19T11:28:33.119Z,99.90
2019-01-19T11:30:59.208Z,99.90
2019-01-19T11:33:25.279Z,99.90
2019-01-19T11:35:51.363Z,99.90
2019-01-19T11:38:20.246Z,99.90
2019-01-19T11:40:45.430Z,99.90
2019-01-19T11:43:31.412Z,99.90
2019-01-19T11:45:57.573Z,99.90
2019-01-19T11:48:23.630Z,99.90
2019-01-19T11:50:49.711Z,99.90
2019-01-19T11:53:15.784Z,99.90
2019-01-19T11:55:41.869Z,99.90
2019-01-19T11:58:07.935Z,99.90
2019-01-19T12:00:36.315Z,99.90
2019-01-19T12:03:24.285Z,99.90
2019-01-19T12:05:50.571Z,99.90
2019-01-19T12:08:19.697Z,99.90
2019-01-19T12:10:44.639Z,99.90
2019-01-19T12:13:10.724Z,99.90
2019-01-19T12:15:36.806Z,99.90
2019-01-19T12:18:03.504Z,99.90
2019-01-19T12:20:34.940Z,99.90
2019-01-19T12:23:01.008Z,99.90
2019-01-19T12:25:27.219Z,99.90
2019-01-19T12:27:53.303Z,99.90
2019-01-19T12:30:22.511Z,99.90
2019-01-19T12:32:48.804Z,99.90
2019-01-19T12:35:15.392Z,99.90
2019-01-19T12:37:41.567Z,99.90
2019-01-19T12:40:16.727Z,99.90
2019-01-19T12:42:43.903Z,99.90
2019-01-19T12:45:16.528Z,99.90
2019-01-19T12:47:42.598Z,99.90
2019-01-19T12:50:17.493Z,99.90
2019-01-19T12:52:43.562Z,99.90
2019-01-19T12:55:11.452Z,99.90
2019-01-19T12:57:37.524Z,98.80
2019-01-19T13:00:07.724Z,97.70
2019-01-19T13:02:33.895Z,96.10
2019-01-19T13:05:00.008Z,94.80
2019-01-19T13:07:26.094Z,95.40
2019-01-19T13:09:52.186Z,92.10
2019-01-19T13:12:40.064Z,90.10
2019-01-19T13:15:38.818Z,90.10
2019-01-19T13:18:20.591Z,86.90
2019-01-19T13:21:02.228Z,81.30
2019-01-19T13:23:45.183Z,81.80
2019-01-19T13:26:36.235Z,77.30
2019-01-19T13:29:23.791Z,74.20
2019-01-19T13:31:56.695Z,72.00
2019-01-19T13:34:49.563Z,64.90
2019-01-19T13:37:25.078Z,63.00
2019-01-19T13:39:54.968Z,60.30
2019-01-19T13:42:56.479Z,62.30
2019-01-19T13:45:41.804Z,65.10
2019-01-19T13:48:11.677Z,64.30
2019-01-19T13:50:47.606Z,61.60
2019-01-19T13:53:26.932Z,60.90
2019-01-19T13:56:03.108Z,62.60
2019-01-19T13:58:48.342Z,63.20
2019-01-19T14:01:38.496Z,64.10
2019-01-19T14:04:14.399Z,64.30
2019-01-19T14:06:53.532Z,65.40
2019-01-19T14:09:26.135Z,65.40
2019-01-19T14:12:08.192Z,67.70
2019-01-19T14:14:40.946Z,67.40
2019-01-19T14:17:20.124Z,66.80
2019-01-19T14:20:01.870Z,66.90
2019-01-19T14:22:37.681Z,67.00
2019-01-19T14:25:26.084Z,69.10
2019-01-19T14:27:59.075Z,67.30
2019-01-19T14:30:52.284Z,68.00
2019-01-19T14:33:39.886Z,67.00
2019-01-19T14:36:28.136Z,68.90
2019-01-19T14:39:10.128Z,69.20
2019-01-19T14:41:40.010Z,68.30
2019-01-19T14:44:18.691Z,67.20
2019-01-19T14:47:03.600Z,67.90
2019-01-19T14:49:56.437Z,69.00
2019-01-19T14:52:48.039Z,69.90
2019-01-19T14:55:44.133Z,68.80
2019-01-19T14:58:17.102Z,69.30
2019-01-19T15:00:47.061Z,71.20
2019-01-19T15:03:35.323Z,71.50
2019-01-19T15:06:05.200Z,73.20
2019-01-19T15:08:47.060Z,75.40
2019-01-19T15:11:39.644Z,76.60
2019-01-19T15:14:26.736Z,77.90
2019-01-19T15:17:05.839Z,79.80
2019-01-19T15:20:01.972Z,80.90
2019-01-19T15:22:43.947Z,79.50
2019-01-19T15:25:16.823Z,80.30
2019-01-19T15:27:46.720Z,80.40
2019-01-19T15:30:33.639Z,78.20
2019-01-19T15:33:24.519Z,77.50
2019-01-19T15:35:57.556Z,77.40
2019-01-19T15:38:30.284Z,77.20
2019-01-19T15:41:16.835Z,78.20
2019-01-19T15:44:13.419Z,78.20
2019-01-19T15:47:06.259Z,78.80
2019-01-19T15:50:09.700Z,79.90
2019-01-19T15:52:42.367Z,81.90
2019-01-19T15:55:29.156Z,83.60
2019-01-19T15:58:14.451Z,84.50
2019-01-19T16:00:50.194Z,86.10
2019-01-19T16:03:28.722Z,88.10
2019-01-19T16:06:15.596Z,89.40
2019-01-19T16:09:10.107Z,90.40
2019-01-19T16:11:45.283Z,91.20
2019-01-19T16:14:18.018Z,91.80
2019-01-19T16:17:23.551Z,92.60
2019-01-19T16:20:11.435Z,93.20
2019-01-19T16:22:50.375Z,94.10
2019-01-19T16:25:38.249Z,95.00
2019-01-19T16:28:13.525Z,95.60
2019-01-19T16:31:09.132Z,96.60
2019-01-19T16:34:12.904Z,97.80
2019-01-19T16:36:54.932Z,98.90
2019-01-19T16:39:33.779Z,99.90
2019-01-19T16:42:06.555Z,99.90
2019-01-19T16:44:54.474Z,99.90
2019-01-19T16:47:45.911Z,99.90
2019-01-19T16:50:34.134Z,99.90
2019-01-19T16:53:16.170Z,99.90
2019-01-19T16:55:46.102Z,99.90
2019-01-19T16:58:44.606Z,99.90
2019-01-19T17:01:17.327Z,99.90
2019-01-19T17:03:53.112Z,99.90
2019-01-19T17:06:28.561Z,99.90
2019-01-19T17:09:33.198Z,99.90
2019-01-19T17:12:04.903Z,99.90
2019-01-19T17:14:51.650Z,99.90
2019-01-19T17:17:42.312Z,99.90
2019-01-19T17:20:27.387Z,99.90
2019-01-19T17:23:03.345Z,99.90
2019-01-19T17:25:56.266Z,99.90
2019-01-19T17:28:35.238Z,99.90
2019-01-19T17:31:16.942Z,99.90
2019-01-19T17:33:52.586Z,99.90
2019-01-19T17:36:28.543Z,99.90
2019-01-19T17:39:01.479Z,99.90
2019-01-19T17:42:00.624Z,99.90
2019-01-19T17:44:52.360Z,99.90
2019-01-19T17:47:22.227Z,99.90
2019-01-19T17:49:54.687Z,99.90
2019-01-19T17:52:27.784Z,99.90
2019-01-19T17:55:00.572Z,99.90
2019-01-19T17:57:54.317Z,99.90
2019-01-19T18:00:36.303Z,99.90
2019-01-19T18:03:12.214Z,99.90
2019-01-19T18:05:45.185Z,99.90
2019-01-19T18:08:31.673Z,99.90
2019-01-19T18:11:27.640Z,99.90
2019-01-19T18:14:20.499Z,99.90
2019-01-19T18:16:53.631Z,99.90
2019-01-19T18:19:29.323Z,99.90
2019-01-19T18:22:05.188Z,99.90
2019-01-19T18:24:51.835Z,99.90
2019-01-19T18:27:33.843Z,99.90
2019-01-19T18:33:17.968Z,99.90
2019-01-19T18:36:07.861Z,99.90
2019-01-19T18:38:58.495Z,99.90
2019-01-19T18:41:34.417Z,99.90
2019-01-19T18:44:10.056Z,99.90
2019-01-19T18:46:51.681Z,99.90
2019-01-19T18:49:53.953Z,99.90
2019-01-19T18:52:39.214Z,99.90
2019-01-19T18:55:24.093Z,99.90
2019-01-19T18:58:20.998Z,99.90
2019-01-19T19:01:07.637Z,99.90
2019-01-19T19:03:40.444Z,99.90
2019-01-19T19:06:13.435Z,99.90
2019-01-19T19:08:43.324Z,99.90
2019-01-19T19:11:30.122Z,99.90
2019-01-19T19:14:00.007Z,99.90
2019-01-19T19:16:58.505Z,99.90
2019-01-19T19:19:43.496Z,99.90
2019-01-19T19:22:51.582Z,99.90
2019-01-19T19:25:36.324Z,99.90
2019-01-19T19:28:18.871Z,99.90
2019-01-19T19:30:51.765Z,99.90
2019-01-19T19:33:33.934Z,99.90
2019-01-19T19:36:33.098Z,99.90
2019-01-19T19:39:19.760Z,99.90
2019-01-19T19:42:13.628Z,99.90
2019-01-19T19:45:04.601Z,99.90
2019-01-19T19:48:02.956Z,99.90
2019-01-19T19:50:53.852Z,99.90
2019-01-19T19:53:20.048Z,99.90
2019-01-19T19:55:45.898Z,99.90
2019-01-19T19:58:12.601Z,99.90
2019-01-19T20:00:38.696Z,99.90
2019-01-19T20:03:05.006Z,99.90
2019-01-19T20:05:31.399Z,99.90
2019-01-19T20:07:57.587Z,99.90
2019-01-19T20:10:26.503Z,99.90
2019-01-19T20:12:52.669Z,99.90
2019-01-19T20:15:18.852Z,99.90
2019-01-19T20:17:45.036Z,99.90
2019-01-19T20:20:11.799Z,99.90
2019-01-19T20:22:38.843Z,99.90
2019-01-19T20:25:06.467Z,99.90
2019-01-19T20:27:32.702Z,99.90
2019-01-19T20:29:58.978Z,99.90
2019-01-19T20:32:25.191Z,99.90
2019-01-19T20:34:51.459Z,99.90
2019-01-19T20:37:17.664Z,99.90
2019-01-19T20:39:43.962Z,99.90
2019-01-19T20:42:10.251Z,99.90
2019-01-19T20:44:36.635Z,99.90
2019-01-19T20:47:03.210Z,99.90
2019-01-19T20:49:29.491Z,99.90
2019-01-19T20:51:55.845Z,99.90
2019-01-19T20:54:22.122Z,99.90
2019-01-19T20:56:48.585Z,99.90
2019-01-19T20:59:16.711Z,99.90
2019-01-19T21:01:43.029Z,99.90
2019-01-19T21:04:29.210Z,99.90
2019-01-19T21:06:55.603Z,99.90
2019-01-19T21:09:21.920Z,99.90
2019-01-19T21:11:48.236Z,99.90
2019-01-19T21:14:14.580Z,99.90
2019-01-19T21:16:42.552Z,99.90
2019-01-19T21:19:08.972Z,99.90
2019-01-19T21:21:35.380Z,99.90
2019-01-19T21:24:01.622Z,99.90
2019-01-19T21:26:27.976Z,99.90
2019-01-19T21:28:54.276Z,99.90
2019-01-19T21:31:21.085Z,99.90
2019-01-19T21:33:47.463Z,99.90
2019-01-19T21:36:13.767Z,99.90
2019-01-19T21:38:40.777Z,99.90
2019-01-19T21:41:07.145Z,99.90
2019-01-19T21:43:33.611Z,99.90
2019-01-19T21:45:59.956Z,99.90
2019-01-19T21:48:26.324Z,99.90
2019-01-19T21:50:52.645Z,99.90
2019-01-19T21:53:19.199Z,99.90
2019-01-19T21:55:45.418Z,99.90
2019-01-19T21:58:11.904Z,99.90
2019-01-19T22:00:38.414Z,99.90
2019-01-19T22:03:04.891Z,99.90
2019-01-19T22:05:31.354Z,99.90
2019-01-19T22:07:57.639Z,99.90
2019-01-19T22:10:24.117Z,99.90
2019-01-19T22:12:50.544Z,99.90
2019-01-19T22:15:18.728Z,99.90
2019-01-19T22:17:45.199Z,99.90
2019-01-19T22:20:13.935Z,99.90
2019-01-19T22:22:41.272Z,99.90
2019-01-19T22:25:08.094Z,99.90
2019-01-19T22:27:35.551Z,99.90
2019-01-19T22:30:02.909Z,99.90
2019-01-19T22:32:29.162Z,99.90
2019-01-19T22:34:55.442Z,99.90
2019-01-19T22:37:21.925Z,99.90
2019-01-19T22:39:49.851Z,99.90
2019-01-19T22:42:16.013Z,99.90
2019-01-19T22:44:42.263Z,99.90
2019-01-19T22:47:08.654Z,99.90
2019-01-19T22:49:35.269Z,99.90
2019-01-19T22:52:01.633Z,99.90
2019-01-19T22:54:28.004Z,99.90
2019-01-19T22:56:56.204Z,99.90
2019-01-19T22:59:22.370Z,99.90
2019-01-19T23:01:48.524Z,99.90
2019-01-19T23:04:14.639Z,99.90
2019-01-19T23:06:40.908Z,99.90
2019-01-19T23:09:09.876Z,99.90
2019-01-19T23:11:36.226Z,99.90
2019-01-19T23:14:04.188Z,99.90
2019-01-19T23:16:30.522Z,99.90
2019-01-19T23:18:56.901Z,99.90
2019-01-19T23:21:23.202Z,99.90
2019-01-19T23:23:49.624Z,99.90
2019-01-19T23:26:15.991Z,99.90
2019-01-19T23:28:42.320Z,99.90
2019-01-19T23:31:08.661Z,99.90
2019-01-19T23:33:35.179Z,99.90
2019-01-19T23:36:01.674Z,99.90
2019-01-19T23:38:27.968Z,99.90
2019-01-19T23:40:54.251Z,99.90
2019-01-19T23:43:21.916Z,99.90
2019-01-19T23:45:48.116Z,99.90
2019-01-19T23:48:14.258Z,99.90
2019-01-19T23:50:40.450Z,99.90
2019-01-19T23:53:06.660Z,99.90
2019-01-19T23:55:32.961Z,99.90
2019-01-19T23:57:59.127Z,99.90
